Time;durP1;ratioP1;P1;durP2;ratioP2;P2;SDS_P1;SDS_P2;PMS_P1;PMS_P2;Temp;Humidity;BMP_temperature;BMP_pressure;BME280_temperature;BME280_humidity;BME280_pressure;Samples;Min_cycle;Max_cycle;Signal;HPM_P1;HPM_P2
2021/07/22 00:03:18;;;;;;;9.13;6.70;;;;;;;16.48;83.58;99642.94;10418242;28;20180;-77
2021/07/22 00:08:37;;;;;;;7.23;6.10;;;;;;;16.39;84.14;99631.59;10418444;28;20176;-78
2021/07/22 00:13:56;;;;;;;7.67;6.63;;;;;;;16.28;85.36;99638.53;10419229;28;20215;-78
2021/07/22 00:19:15;;;;;;;8.93;7.00;;;;;;;16.14;86.62;99633.22;10459315;28;20175;-77
2021/07/22 00:24:34;;;;;;;8.70;7.40;;;;;;;16.09;86.96;99625.38;10458987;28;20546;-77
2021/07/22 00:29:53;;;;;;;9.37;6.83;;;;;;;15.99;87.97;99618.78;10457328;28;20223;-78
2021/07/22 00:35:12;;;;;;;9.90;7.07;;;;;;;15.94;88.01;99621.25;10442855;28;20248;-77
2021/07/22 00:40:31;;;;;;;10.80;8.00;;;;;;;15.86;88.88;99622.59;10458503;28;20179;-77
2021/07/22 00:45:50;;;;;;;8.20;6.90;;;;;;;15.79;89.88;99624.72;10407314;28;20188;-77
2021/07/22 00:51:09;;;;;;;10.40;7.30;;;;;;;15.80;89.28;99617.94;10425123;28;20183;-77
2021/07/22 00:56:28;;;;;;;9.70;7.50;;;;;;;15.79;89.29;99613.59;10457715;28;20629;-77
2021/07/22 01:01:47;;;;;;;9.40;7.73;;;;;;;15.75;89.10;99616.41;10455987;28;20183;-76
2021/07/22 01:07:06;;;;;;;10.73;7.10;;;;;;;15.71;89.58;99612.16;10457291;28;20183;-77
2021/07/22 01:12:25;;;;;;;8.70;7.17;;;;;;;15.64;88.96;99612.25;10435440;28;20294;-76
2021/07/22 01:17:49;;;;;;;9.03;8.07;;;;;;;15.62;90.33;99606.34;10437237;28;20191;-78
2021/07/22 01:23:07;;;;;;;8.97;7.13;;;;;;;15.52;89.67;99602.50;10456718;28;20179;-78
2021/07/22 01:28:26;;;;;;;8.37;7.23;;;;;;;15.42;90.38;99606.25;10455250;28;20227;-77
2021/07/22 01:33:45;;;;;;;10.87;6.90;;;;;;;15.38;90.65;99601.97;10441042;28;20207;-78
2021/07/22 01:39:04;;;;;;;9.90;8.07;;;;;;;15.31;90.46;99607.59;10441319;28;20183;-77
2021/07/22 01:44:23;;;;;;;10.20;7.80;;;;;;;15.25;90.56;99610.06;10418755;28;20223;-77
2021/07/22 01:49:42;;;;;;;10.87;7.50;;;;;;;15.21;91.36;99608.50;10415011;28;20175;-78
2021/07/22 01:55:02;;;;;;;10.13;6.60;;;;;;;15.05;91.95;99602.78;10415331;28;20662;-76
2021/07/22 02:00:21;;;;;;;9.50;7.47;;;;;;;15.00;91.50;99594.94;10398713;28;20168;-78
2021/07/22 02:05:39;;;;;;;10.40;7.20;;;;;;;14.92;91.99;99592.69;10399379;28;20168;-78
2021/07/22 02:11:02;;;;;;;10.10;7.40;;;;;;;14.88;92.04;99589.16;10414369;28;20196;-77
2021/07/22 02:16:21;;;;;;;7.87;7.07;;;;;;;14.80;96.10;99590.44;10449790;28;20183;-77
2021/07/22 02:21:41;;;;;;;9.80;8.33;;;;;;;14.74;94.55;99595.66;10455362;28;20176;-76
2021/07/22 02:27:01;;;;;;;15.00;7.83;;;;;;;14.61;95.81;99591.09;10463614;28;20171;-77
2021/07/22 02:32:20;;;;;;;12.97;8.27;;;;;;;14.57;97.21;99598.66;10461389;28;20689;-77
2021/07/22 02:37:39;;;;;;;10.60;8.90;;;;;;;14.44;97.18;99600.38;10463209;28;20187;-77
2021/07/22 02:42:58;;;;;;;11.43;7.80;;;;;;;14.43;97.03;99590.50;10452564;28;20184;-78
2021/07/22 02:48:17;;;;;;;13.13;8.73;;;;;;;14.44;100.00;99594.84;10421706;28;20172;-78
2021/07/22 02:53:36;;;;;;;12.20;7.67;;;;;;;14.33;100.00;99593.41;10421141;28;20204;-77
2021/07/22 02:58:56;;;;;;;14.87;8.70;;;;;;;14.24;100.00;99593.88;10419881;28;20237;-77
2021/07/22 03:04:15;;;;;;;11.63;8.57;;;;;;;14.19;100.00;99583.25;10420994;28;20546;-77
2021/07/22 03:09:34;;;;;;;12.47;8.20;;;;;;;14.10;100.00;99599.53;10420625;28;20235;-77
2021/07/22 03:14:53;;;;;;;9.23;7.80;;;;;;;14.04;100.00;99597.59;10442985;28;20218;-78
2021/07/22 03:20:13;;;;;;;11.80;8.00;;;;;;;13.99;100.00;99601.59;10461562;28;20705;-77
2021/07/22 03:25:32;;;;;;;12.57;8.03;;;;;;;14.12;100.00;99599.94;10446349;28;20175;-77
2021/07/22 03:30:51;;;;;;;9.50;8.47;;;;;;;13.93;100.00;99599.69;10459354;28;20290;-78
2021/07/22 03:36:10;;;;;;;9.83;8.13;;;;;;;13.88;100.00;99603.69;10459635;28;20565;-77
2021/07/22 03:41:30;;;;;;;13.87;8.20;;;;;;;13.85;100.00;99595.44;10460784;28;20171;-77
2021/07/22 03:46:48;;;;;;;14.37;8.30;;;;;;;13.97;100.00;99598.44;10419010;28;20789;-78
2021/07/22 03:52:07;;;;;;;8.60;7.50;;;;;;;13.85;100.00;99598.97;10418928;28;20200;-76
2021/07/22 03:57:26;;;;;;;10.50;9.00;;;;;;;13.80;100.00;99601.38;10417896;28;20180;-76
2021/07/22 04:02:45;;;;;;;12.50;8.20;;;;;;;13.88;100.00;99600.91;10418379;28;20184;-78
2021/07/22 04:08:04;;;;;;;14.50;8.10;;;;;;;13.99;100.00;99600.81;10403391;28;20219;-78
2021/07/22 04:13:23;;;;;;;13.40;8.47;;;;;;;13.95;100.00;99608.34;10414915;28;20210;-76
2021/07/22 04:18:42;;;;;;;10.00;8.00;;;;;;;13.88;100.00;99603.69;10459381;28;20172;-77
2021/07/22 04:24:01;;;;;;;10.80;7.77;;;;;;;13.98;100.00;99608.31;10459236;28;20250;-78
2021/07/22 04:29:20;;;;;;;13.53;9.23;;;;;;;14.11;100.00;99614.97;10442177;28;20227;-77
2021/07/22 04:34:39;;;;;;;11.33;8.80;;;;;;;14.20;100.00;99625.53;10458228;28;20611;-77
2021/07/22 04:39:58;;;;;;;13.13;8.50;;;;;;;14.35;100.00;99627.78;10458632;28;20187;-77
2021/07/22 04:45:17;;;;;;;9.40;7.83;;;;;;;14.49;100.00;99630.38;10427080;28;20643;-77
2021/07/22 04:50:36;;;;;;;14.20;8.00;;;;;;;14.67;100.00;99628.22;10401585;28;20176;-79
2021/07/22 04:55:55;;;;;;;13.60;9.23;;;;;;;14.88;100.00;99625.16;10416050;28;20207;-77
2021/07/22 05:01:15;;;;;;;13.93;8.10;;;;;;;15.07;100.00;99630.09;10415284;28;20184;-77
2021/07/22 05:06:34;;;;;;;9.87;7.87;;;;;;;15.33;100.00;99638.47;10416182;28;20172;-78
2021/07/22 05:11:55;;;;;;;12.37;8.90;;;;;;;15.62;99.73;99631.31;10417008;28;20203;-79
2021/07/22 05:17:14;;;;;;;11.87;9.03;;;;;;;15.74;98.56;99630.72;10440643;28;20176;-78
2021/07/22 05:22:33;;;;;;;12.00;8.30;;;;;;;15.94;99.00;99634.38;10427881;28;20688;-78
2021/07/22 05:27:52;;;;;;;14.30;9.17;;;;;;;16.21;98.54;99636.63;10413993;28;20214;-79
2021/07/22 05:33:11;;;;;;;11.70;8.60;;;;;;;16.57;98.07;99631.25;10400253;28;20200;-77
2021/07/22 05:38:31;;;;;;;15.33;10.17;;;;;;;16.86;95.58;99635.84;10415205;28;20203;-78
2021/07/22 05:43:49;;;;;;;9.07;8.17;;;;;;;16.99;94.68;99640.31;10442554;28;20190;-78
2021/07/22 05:49:10;;;;;;;13.53;9.43;;;;;;;17.19;94.27;99620.84;10456189;28;20626;-78
2021/07/22 05:54:29;;;;;;;11.60;8.83;;;;;;;17.59;91.92;99631.50;10455669;28;20203;-76
2021/07/22 05:59:48;;;;;;;11.53;8.60;;;;;;;17.72;89.43;99627.59;10448679;28;20254;-77
2021/07/22 06:05:07;;;;;;;11.13;9.07;;;;;;;17.81;87.79;99621.41;10469601;28;20171;-78
2021/07/22 06:10:26;;;;;;;17.77;8.90;;;;;;;18.08;87.17;99617.13;10469448;28;20649;-76
2021/07/22 06:15:45;;;;;;;13.63;10.20;;;;;;;18.17;85.03;99624.91;10426287;28;20219;-79
2021/07/22 06:21:05;;;;;;;12.50;9.40;;;;;;;18.19;85.52;99616.88;10428054;28;20638;-78
2021/07/22 06:26:24;;;;;;;13.20;10.97;;;;;;;18.31;85.25;99613.41;10413108;28;20250;-78
2021/07/22 06:31:43;;;;;;;15.50;11.60;;;;;;;18.59;81.77;99613.44;10426006;28;20305;-79
2021/07/22 06:37:02;;;;;;;16.70;12.63;;;;;;;19.08;81.31;99617.59;10427817;28;20176;-79
2021/07/22 06:42:22;;;;;;;16.07;11.83;;;;;;;19.64;78.66;99605.50;10440323;28;20565;-78
2021/07/22 06:47:41;;;;;;;14.47;11.03;;;;;;;20.24;76.32;99603.09;10453294;28;20175;-77
2021/07/22 06:53:02;;;;;;;19.70;12.57;;;;;;;20.74;73.58;99608.53;10440075;28;20318;-78
2021/07/22 06:58:21;;;;;;;17.97;11.73;;;;;;;21.24;68.38;99605.47;10434478;28;20262;-76
2021/07/22 07:03:40;;;;;;;18.50;12.10;;;;;;;21.70;65.80;99613.63;10426515;28;20187;-77
2021/07/22 07:08:59;;;;;;;13.70;10.70;;;;;;;22.05;62.44;99612.97;10409335;28;20204;-79
2021/07/22 07:14:18;;;;;;;11.90;10.40;;;;;;;22.54;60.35;99606.06;10418953;28;20559;-77
2021/07/22 07:19:37;;;;;;;13.53;11.00;;;;;;;22.93;58.94;99619.13;10420752;28;20176;-77
2021/07/22 07:24:56;;;;;;;15.97;11.20;;;;;;;23.36;56.06;99613.94;10420377;28;20215;-78
2021/07/22 07:30:18;;;;;;;14.00;11.20;;;;;;;23.72;57.40;99611.00;10403331;28;20220;-77
2021/07/22 07:35:37;;;;;;;13.27;11.00;;;;;;;24.13;54.11;99603.78;10404568;28;20212;-78
2021/07/22 07:40:56;;;;;;;14.80;10.80;;;;;;;24.39;50.74;99609.25;10419595;28;20179;-78
2021/07/22 07:46:15;;;;;;;11.07;9.93;;;;;;;24.34;53.94;99600.69;10418342;28;20191;-79
2021/07/22 07:51:34;;;;;;;13.30;10.97;;;;;;;24.89;49.92;99588.53;10419193;28;20258;-77
2021/07/22 07:56:53;;;;;;;11.73;9.60;;;;;;;25.41;49.41;99598.97;10403704;28;20180;-79
2021/07/22 08:02:16;;;;;;;14.40;11.30;;;;;;;26.07;47.16;99579.03;10402551;28;20647;-78
2021/07/22 08:07:35;;;;;;;11.37;10.07;;;;;;;25.88;47.71;99576.94;10434754;28;20207;-79
2021/07/22 08:12:54;;;;;;;12.50;10.83;;;;;;;26.32;48.16;99580.38;10422569;28;20211;-77
2021/07/22 08:18:15;;;;;;;12.57;9.57;;;;;;;27.04;45.26;99569.47;10417596;28;20180;-78
2021/07/22 08:23:33;;;;;;;11.27;8.83;;;;;;;27.46;45.32;99570.38;10418682;28;20176;-77
2021/07/22 08:28:52;;;;;;;9.30;8.50;;;;;;;27.56;43.46;99562.47;10416053;28;20220;-75
2021/07/22 08:34:14;;;;;;;10.60;9.50;;;;;;;27.50;43.94;99567.31;10414008;28;20207;-77
2021/07/22 08:39:37;;;;;;;10.47;9.47;;;;;;;27.22;44.87;99563.47;10402208;28;20184;-76
2021/07/22 08:44:56;;;;;;;10.77;9.60;;;;;;;27.35;42.08;99561.03;10400926;28;20293;-77
2021/07/22 08:50:15;;;;;;;10.93;9.33;;;;;;;28.39;41.71;99554.03;10416919;28;20207;-77
2021/07/22 08:55:35;;;;;;;9.00;8.20;;;;;;;28.93;41.28;99547.00;10401264;28;20200;-76
2021/07/22 09:01:00;;;;;;;11.20;9.73;;;;;;;28.92;39.53;99545.44;10415341;28;20176;-77
2021/07/22 09:06:19;;;;;;;11.17;10.07;;;;;;;28.91;40.41;99535.44;10416163;28;20241;-76
2021/07/22 09:11:58;;;;;;;14.53;10.93;;;;;;;29.40;39.14;99529.81;10401101;28;20227;-77
2021/07/22 09:17:26;;;;;;;10.60;9.10;;;;;;;29.62;38.82;99540.38;10414751;28;20173;-77
2021/07/22 09:22:45;;;;;;;11.23;10.20;;;;;;;30.40;38.52;99526.22;10415885;28;20188;-75
2021/07/22 09:28:05;;;;;;;9.80;8.80;;;;;;;31.24;36.09;99531.69;10414375;28;20216;-77
2021/07/22 09:33:33;;;;;;;9.80;9.00;;;;;;;31.20;38.33;99519.84;10431548;28;20203;-76
2021/07/22 09:38:52;;;;;;;10.33;9.33;;;;;;;30.94;36.64;99525.19;10456490;28;20186;-78
2021/07/22 09:44:29;;;;;;;9.47;8.60;;;;;;;31.11;36.49;99523.03;10454959;28;20225;-75
2021/07/22 09:49:49;;;;;;;11.10;10.07;;;;;;;31.97;33.53;99519.13;10456264;28;20183;-78
2021/07/22 09:55:28;;;;;;;10.80;9.17;;;;;;;32.03;33.27;99529.16;10440560;28;20203;-78
2021/07/22 10:00:51;;;;;;;9.10;8.30;;;;;;;31.65;33.31;99523.88;10454677;28;20175;-77
2021/07/22 10:06:10;;;;;;;8.73;7.33;;;;;;;30.47;33.88;99517.19;10414607;28;20634;-77
2021/07/22 10:11:30;;;;;;;8.67;7.87;;;;;;;31.46;31.66;99508.00;10399456;28;20187;-77
2021/07/22 10:16:50;;;;;;;8.90;8.20;;;;;;;28.38;37.94;99512.09;10413251;28;20270;-76
2021/07/22 10:22:09;;;;;;;8.13;7.33;;;;;;;27.32;38.17;99510.41;10414345;28;20638;-76
2021/07/22 10:27:28;;;;;;;8.13;7.40;;;;;;;26.85;41.58;99511.75;10413511;28;20647;-76
2021/07/22 10:32:52;;;;;;;8.13;7.30;;;;;;;28.79;38.94;99494.19;10428179;28;20211;-76
2021/07/22 10:38:14;;;;;;;7.67;7.07;;;;;;;28.56;37.11;99488.97;10440185;28;20175;-75
2021/07/22 10:43:40;;;;;;;8.70;8.00;;;;;;;28.37;36.30;99497.16;10442128;28;20184;-77
2021/07/22 10:49:15;;;;;;;10.40;7.47;;;;;;;29.03;36.52;99476.72;10442412;28;20573;-79
2021/07/22 10:54:47;;;;;;;10.03;7.67;;;;;;;28.76;37.44;99471.75;10421117;28;20212;-76
2021/07/22 11:00:08;;;;;;;8.23;7.43;;;;;;;29.69;34.80;99466.09;10404938;28;20515;-76
2021/07/22 11:05:27;;;;;;;10.73;7.50;;;;;;;31.64;32.50;99468.25;10420885;28;20172;-76
2021/07/22 11:11:03;;;;;;;10.83;8.80;;;;;;;31.19;31.01;99460.66;10450225;28;20187;-75
2021/07/22 11:16:31;;;;;;;7.90;7.30;;;;;;;32.32;31.01;99454.25;10422089;28;20227;-75
2021/07/22 11:21:50;;;;;;;7.50;6.80;;;;;;;32.74;31.68;99456.28;10446353;28;20176;-78
2021/07/22 11:27:10;;;;;;;7.77;7.07;;;;;;;32.48;34.15;99451.19;10461479;28;20250;-79
2021/07/22 11:32:29;;;;;;;7.90;7.20;;;;;;;30.00;33.46;99452.34;10444726;28;20693;-77
2021/07/22 11:37:48;;;;;;;8.10;7.40;;;;;;;30.30;34.39;99454.00;10445895;28;20171;-77
2021/07/22 11:43:07;;;;;;;7.77;7.20;;;;;;;30.45;32.18;99445.91;10409400;28;20547;-78
2021/07/22 11:48:26;;;;;;;7.63;7.03;;;;;;;32.77;28.46;99440.97;10419459;28;20583;-76
2021/07/22 11:53:45;;;;;;;8.47;7.67;;;;;;;32.60;29.60;99437.59;10418372;28;20216;-78
2021/07/22 11:59:07;;;;;;;8.03;7.33;;;;;;;32.68;30.42;99438.50;10418164;28;20255;-77
2021/07/22 12:04:31;;;;;;;8.03;7.20;;;;;;;33.10;29.07;99429.03;10419854;28;20180;-77
2021/07/22 12:09:53;;;;;;;7.90;7.27;;;;;;;33.67;30.45;99424.09;10418516;28;20196;-78
2021/07/22 12:15:12;;;;;;;7.93;7.30;;;;;;;34.50;27.94;99420.25;10401741;28;20211;-76
2021/07/22 12:20:33;;;;;;;10.07;7.10;;;;;;;36.08;26.88;99416.13;10418034;28;20179;-76
2021/07/22 12:26:03;;;;;;;8.40;7.77;;;;;;;34.48;28.35;99415.09;10418001;28;20629;-78
2021/07/22 12:31:23;;;;;;;8.07;7.30;;;;;;;35.16;26.67;99400.19;10427990;28;20222;-78
2021/07/22 12:36:50;;;;;;;8.20;7.47;;;;;;;34.62;27.38;99396.59;10416884;28;20215;-76
2021/07/22 12:42:11;;;;;;;7.30;6.80;;;;;;;34.93;27.60;99389.09;10417326;28;20175;-77
2021/07/22 12:47:32;;;;;;;7.10;6.60;;;;;;;36.81;26.73;99385.44;10401627;28;20191;-77
2021/07/22 12:52:52;;;;;;;7.53;6.87;;;;;;;36.29;26.24;99388.16;10401740;28;20282;-77
2021/07/22 12:58:27;;;;;;;7.40;6.80;;;;;;;34.55;28.11;99390.81;10415362;28;20176;-75
2021/07/22 13:03:48;;;;;;;8.30;7.80;;;;;;;32.85;29.38;99379.16;10436641;28;20187;-77
2021/07/22 13:09:07;;;;;;;12.63;7.90;;;;;;;34.19;31.03;99373.44;10456437;28;20668;-76
2021/07/22 13:14:26;;;;;;;8.07;7.47;;;;;;;34.75;26.60;99362.25;10440493;28;20206;-75
2021/07/22 13:19:45;;;;;;;8.30;7.60;;;;;;;33.35;30.70;99362.69;10457266;28;20174;-76
2021/07/22 13:25:05;;;;;;;8.37;7.63;;;;;;;33.54;29.64;99352.72;10441763;28;20239;-77
2021/07/22 13:30:24;;;;;;;9.20;8.40;;;;;;;34.25;29.85;99341.88;10440114;28;20222;-76
2021/07/22 13:35:44;;;;;;;8.80;8.00;;;;;;;33.95;28.88;99347.22;10427861;28;20210;-76
2021/07/22 13:41:04;;;;;;;9.40;8.50;;;;;;;33.79;29.04;99339.00;10422989;28;20266;-76
2021/07/22 13:46:23;;;;;;;12.90;9.23;;;;;;;32.32;31.65;99328.94;10398806;28;20172;-76
2021/07/22 13:51:42;;;;;;;8.70;7.87;;;;;;;33.63;29.81;99331.56;10414908;28;20180;-78
2021/07/22 13:57:01;;;;;;;10.00;8.93;;;;;;;33.44;29.07;99331.63;10427991;28;20184;-75
2021/07/22 14:02:20;;;;;;;8.63;7.93;;;;;;;33.78;29.27;99315.41;10398688;28;20211;-76
2021/07/22 14:07:39;;;;;;;9.80;8.97;;;;;;;34.54;28.88;99323.53;10414718;28;20654;-76
2021/07/22 14:12:58;;;;;;;8.90;8.27;;;;;;;35.54;27.33;99312.53;10426198;28;20206;-77
2021/07/22 14:18:17;;;;;;;9.13;8.23;;;;;;;34.95;26.38;99312.84;10429789;28;20629;-77
2021/07/22 14:23:36;;;;;;;9.47;8.40;;;;;;;34.57;28.43;99311.78;10463944;28;20178;-77
2021/07/22 14:28:55;;;;;;;8.77;8.07;;;;;;;35.71;26.91;99307.09;10462128;28;20214;-78
2021/07/22 14:34:16;;;;;;;9.40;8.50;;;;;;;34.84;26.90;99298.06;10447846;28;20198;-77
2021/07/22 14:39:36;;;;;;;9.40;8.70;;;;;;;35.10;25.81;99302.31;10448127;28;20269;-76
2021/07/22 14:44:55;;;;;;;9.37;8.67;;;;;;;34.98;26.86;99303.16;10461839;28;20179;-76
2021/07/22 14:50:15;;;;;;;10.03;9.00;;;;;;;35.45;26.08;99292.25;10437179;28;20642;-76
2021/07/22 14:55:34;;;;;;;10.03;9.23;;;;;;;36.15;24.71;99286.47;10421176;28;20225;-76
2021/07/22 15:00:53;;;;;;;11.40;10.20;;;;;;;34.42;25.55;99283.03;10419912;28;20520;-78
2021/07/22 15:06:12;;;;;;;10.40;9.50;;;;;;;34.11;27.23;99279.66;10406104;28;20223;-78
2021/07/22 15:11:33;;;;;;;10.33;9.30;;;;;;;34.31;28.03;99282.53;10420792;28;20215;-78
2021/07/22 15:16:52;;;;;;;9.87;8.97;;;;;;;33.91;28.13;99283.97;10419307;28;20195;-78
2021/07/22 15:22:11;;;;;;;10.37;9.47;;;;;;;34.28;28.09;99272.22;10420448;28;20179;-77
2021/07/22 15:27:30;;;;;;;11.93;10.83;;;;;;;34.26;27.40;99280.56;10419713;28;20219;-76
2021/07/22 15:32:49;;;;;;;10.80;9.80;;;;;;;34.42;27.39;99268.72;10418358;28;20597;-77
2021/07/22 15:38:09;;;;;;;10.43;9.40;;;;;;;33.29;27.92;99260.13;10404959;28;20180;-77
2021/07/22 15:43:28;;;;;;;11.23;9.60;;;;;;;33.76;28.24;99260.97;10425410;28;20178;-77
2021/07/22 15:48:47;;;;;;;12.50;9.43;;;;;;;34.37;28.00;99254.59;10460713;28;20183;-77
2021/07/22 15:54:06;;;;;;;9.47;8.63;;;;;;;34.00;29.14;99257.81;10460228;28;20233;-77
2021/07/22 15:59:25;;;;;;;10.90;9.93;;;;;;;33.23;29.66;99246.53;10443848;28;20179;-77
2021/07/22 16:04:45;;;;;;;12.00;10.10;;;;;;;32.04;31.87;99257.41;10444827;28;20549;-78
2021/07/22 16:10:04;;;;;;;11.17;9.83;;;;;;;31.38;33.03;99256.78;10431970;28;20172;-78
2021/07/22 16:15:27;;;;;;;13.00;9.17;;;;;;;30.98;32.47;99249.22;10426288;28;20246;-77
2021/07/22 16:20:46;;;;;;;10.27;9.27;;;;;;;30.34;34.80;99247.25;10459249;28;20568;-77
2021/07/22 16:26:05;;;;;;;10.40;9.50;;;;;;;29.89;36.84;99242.41;10459175;28;20203;-78
2021/07/22 16:31:25;;;;;;;11.70;9.93;;;;;;;30.24;35.58;99233.91;10415908;28;20224;-77
2021/07/22 16:36:44;;;;;;;11.30;9.80;;;;;;;30.71;35.04;99232.47;10416858;28;20247;-76
2021/07/22 16:42:03;;;;;;;10.97;9.70;;;;;;;31.29;33.53;99220.19;10416589;28;20176;-77
2021/07/22 16:47:23;;;;;;;10.73;9.73;;;;;;;30.99;34.64;99220.25;10400603;28;20172;-76
2021/07/22 16:52:42;;;;;;;13.50;10.20;;;;;;;31.24;34.35;99218.19;10416682;28;20678;-78
2021/07/22 16:58:02;;;;;;;11.70;10.57;;;;;;;31.35;33.00;99210.28;10415312;28;20184;-77
2021/07/22 17:03:21;;;;;;;11.20;10.00;;;;;;;30.53;35.26;99205.53;10420041;28;20179;-78
2021/07/22 17:08:40;;;;;;;11.80;10.20;;;;;;;30.10;36.09;99209.50;10457376;28;20175;-77
2021/07/22 17:13:59;;;;;;;11.10;10.00;;;;;;;30.11;36.70;99202.53;10455643;28;20262;-77
2021/07/22 17:19:18;;;;;;;12.07;10.10;;;;;;;30.25;35.43;99195.72;10416839;28;20565;-76
2021/07/22 17:24:37;;;;;;;13.50;10.00;;;;;;;29.97;35.99;99198.78;10435415;28;20192;-77
2021/07/22 17:29:56;;;;;;;11.50;10.10;;;;;;;30.78;34.48;99202.16;10437867;28;20212;-76
2021/07/22 17:35:15;;;;;;;10.80;9.73;;;;;;;30.70;35.64;99206.13;10423202;28;20211;-78
2021/07/22 17:40:35;;;;;;;13.47;10.70;;;;;;;30.70;35.45;99203.28;10443717;28;20184;-75
2021/07/22 17:45:54;;;;;;;11.63;10.47;;;;;;;31.35;34.36;99192.44;10441834;28;20612;-76
2021/07/22 17:51:12;;;;;;;10.93;9.73;;;;;;;31.29;34.40;99186.84;10442091;28;20187;-78
2021/07/22 17:56:33;;;;;;;9.97;9.00;;;;;;;30.07;36.49;99202.81;10399064;28;20207;-78
2021/07/22 18:01:52;;;;;;;11.27;9.40;;;;;;;28.43;39.60;99197.88;10413609;28;20639;-77
2021/07/22 18:07:11;;;;;;;11.23;10.13;;;;;;;27.43;42.22;99191.88;10453176;28;20203;-78
2021/07/22 18:12:30;;;;;;;10.90;9.90;;;;;;;27.21;43.38;99193.88;10443740;28;20207;-78
2021/07/22 18:17:49;;;;;;;10.00;8.77;;;;;;;26.66;44.43;99185.91;10443199;28;20180;-75
2021/07/22 18:23:08;;;;;;;11.83;9.87;;;;;;;26.53;46.15;99198.16;10426683;28;20188;-76
2021/07/22 18:28:27;;;;;;;9.80;8.80;;;;;;;26.22;46.95;99196.09;10429920;28;20247;-79
2021/07/22 18:34:02;;;;;;;12.90;10.00;;;;;;;25.99;48.76;99199.28;10398007;28;20215;-77
2021/07/22 18:39:23;;;;;;;11.50;9.43;;;;;;;25.71;50.46;99203.84;10424814;28;20184;-78
2021/07/22 18:44:42;;;;;;;13.60;9.70;;;;;;;25.27;51.56;99205.44;10413642;28;20180;-76
2021/07/22 18:50:01;;;;;;;12.07;10.30;;;;;;;24.98;52.69;99200.72;10414148;28;20551;-76
2021/07/22 18:55:20;;;;;;;14.40;9.37;;;;;;;24.75;53.20;99197.34;10426942;28;20235;-77
2021/07/22 19:00:39;;;;;;;12.73;9.90;;;;;;;24.53;53.58;99200.63;10424097;28;20176;-78
2021/07/22 19:05:58;;;;;;;14.43;9.67;;;;;;;24.24;54.54;99205.50;10430626;28;20282;-77
2021/07/22 19:11:19;;;;;;;9.70;8.80;;;;;;;23.97;55.70;99202.25;10441856;28;20608;-76
2021/07/22 19:16:38;;;;;;;11.30;9.20;;;;;;;23.72;56.78;99209.22;10422963;28;20221;-78
2021/07/22 19:21:57;;;;;;;13.43;10.90;;;;;;;23.44;58.19;99210.75;10441327;28;20179;-78
2021/07/22 19:27:16;;;;;;;11.20;9.00;;;;;;;23.29;58.36;99214.81;10460903;28;20191;-80
2021/07/22 19:32:35;;;;;;;10.70;9.60;;;;;;;23.18;59.68;99225.81;10431921;28;20211;-79
2021/07/22 19:37:54;;;;;;;11.47;10.07;;;;;;;22.89;60.18;99231.31;10432667;28;20187;-78
2021/07/22 19:43:13;;;;;;;13.57;10.40;;;;;;;22.65;60.50;99227.75;10461412;28;20262;-79
2021/07/22 19:48:32;;;;;;;11.70;9.93;;;;;;;22.53;61.99;99241.97;10446515;28;20183;-77
2021/07/22 19:53:52;;;;;;;10.83;9.73;;;;;;;22.33;61.91;99233.34;10457490;28;20199;-80
2021/07/22 19:59:11;;;;;;;17.00;9.73;;;;;;;22.01;62.57;99248.09;10458597;28;20192;-79
2021/07/22 20:04:30;;;;;;;13.87;9.53;;;;;;;21.95;62.64;99243.59;10459174;28;20192;-78
2021/07/22 20:09:49;;;;;;;13.70;10.67;;;;;;;21.72;63.12;99241.47;10458714;28;20737;-78
2021/07/22 20:15:10;;;;;;;11.67;9.73;;;;;;;21.60;63.50;99242.44;10428538;28;20208;-79
2021/07/22 20:20:29;;;;;;;12.10;8.70;;;;;;;21.53;63.65;99248.28;10443189;28;20258;-76
2021/07/22 20:25:48;;;;;;;12.27;10.27;;;;;;;21.27;64.49;99244.31;10435518;28;20199;-79
2021/07/22 20:31:08;;;;;;;13.00;10.10;;;;;;;21.13;64.79;99242.09;10415861;28;20263;-78
2021/07/22 20:36:27;;;;;;;18.90;9.83;;;;;;;21.07;64.31;99249.56;10429851;28;20210;-78
2021/07/22 20:41:46;;;;;;;12.97;8.90;;;;;;;21.05;64.66;99251.28;10458180;28;20199;-78
2021/07/22 20:47:05;;;;;;;17.97;9.77;;;;;;;20.95;64.72;99247.72;10448368;28;20195;-78
2021/07/22 20:52:24;;;;;;;11.00;8.90;;;;;;;20.84;64.63;99246.56;10458331;28;20171;-78
2021/07/22 20:57:43;;;;;;;9.87;8.83;;;;;;;20.73;64.96;99251.81;10441740;28;20172;-78
2021/07/22 21:03:04;;;;;;;11.87;9.20;;;;;;;20.66;65.82;99252.13;10442652;28;20199;-79
2021/07/22 21:08:24;;;;;;;11.83;8.87;;;;;;;20.60;66.27;99253.19;10442493;28;20175;-77
2021/07/22 21:13:43;;;;;;;19.27;9.30;;;;;;;20.51;65.61;99251.16;10434348;28;20207;-78
2021/07/22 21:19:02;;;;;;;12.37;8.90;;;;;;;20.35;67.16;99240.25;10415861;28;20184;-78
2021/07/22 21:24:21;;;;;;;12.30;9.50;;;;;;;20.16;67.79;99247.00;10415921;28;20208;-77
2021/07/22 21:29:40;;;;;;;15.20;9.00;;;;;;;20.01;69.76;99239.59;10398026;28;20600;-78
2021/07/22 21:35:00;;;;;;;11.60;9.20;;;;;;;19.86;70.99;99246.19;10400352;28;20208;-78
2021/07/22 21:40:19;;;;;;;15.33;9.60;;;;;;;19.78;72.42;99242.09;10400610;28;20258;-78
2021/07/22 21:45:37;;;;;;;12.83;8.30;;;;;;;19.54;72.51;99249.41;10422952;28;20183;-78
2021/07/22 21:50:56;;;;;;;12.97;8.87;;;;;;;19.46;74.07;99239.72;10456393;28;20171;-78
2021/07/22 21:56:15;;;;;;;13.10;10.13;;;;;;;19.22;74.77;99243.41;10455532;28;20211;-77
2021/07/22 22:01:34;;;;;;;12.20;9.57;;;;;;;18.96;76.75;99250.28;10439529;28;20188;-79
2021/07/22 22:06:53;;;;;;;12.57;9.03;;;;;;;18.77;77.62;99240.97;10455724;28;20171;-78
2021/07/22 22:12:13;;;;;;;14.17;9.33;;;;;;;18.70;77.99;99240.41;10455802;28;20175;-78
2021/07/22 22:17:32;;;;;;;10.13;7.87;;;;;;;18.74;78.72;99241.84;10399858;28;20184;-78
2021/07/22 22:22:51;;;;;;;13.60;9.87;;;;;;;18.68;79.66;99243.66;10414710;28;20188;-78
2021/07/22 22:28:10;;;;;;;20.63;9.20;;;;;;;18.39;80.19;99242.25;10412941;28;20227;-78
2021/07/22 22:33:29;;;;;;;14.30;9.47;;;;;;;18.26;80.24;99243.50;10399017;28;20204;-78
2021/07/22 22:38:48;;;;;;;16.00;9.47;;;;;;;18.30;81.53;99239.38;10414253;28;20188;-78
2021/07/22 22:44:07;;;;;;;12.63;9.60;;;;;;;18.16;82.67;99239.78;10431668;28;20182;-79
2021/07/22 22:49:26;;;;;;;13.57;9.67;;;;;;;18.00;83.78;99247.50;10463137;28;20179;-78
2021/07/22 22:54:45;;;;;;;14.07;9.70;;;;;;;17.72;86.00;99238.00;10462077;28;20215;-76
2021/07/22 23:00:07;;;;;;;13.80;9.30;;;;;;;17.53;87.71;99249.28;10446426;28;20167;-77
2021/07/22 23:05:26;;;;;;;12.80;9.87;;;;;;;17.49;88.31;99243.06;10462385;28;20199;-78
2021/07/22 23:10:46;;;;;;;10.20;8.63;;;;;;;17.34;90.14;99247.47;10462392;28;20179;-77
2021/07/22 23:16:05;;;;;;;12.30;9.03;;;;;;;17.20;91.15;99245.06;10430140;28;20211;-78
2021/07/22 23:21:24;;;;;;;10.17;8.30;;;;;;;17.13;91.87;99245.22;10405543;28;20698;-78
2021/07/22 23:26:43;;;;;;;15.77;9.00;;;;;;;17.05;91.68;99245.88;10420399;28;20207;-77
2021/07/22 23:32:02;;;;;;;13.43;9.33;;;;;;;17.08;91.28;99248.56;10403190;28;20231;-79
2021/07/22 23:37:21;;;;;;;12.90;9.60;;;;;;;16.99;92.33;99248.41;10404684;28;20184;-78
2021/07/22 23:42:40;;;;;;;14.27;9.93;;;;;;;16.89;94.09;99249.47;10404578;28;20184;-79
2021/07/22 23:47:59;;;;;;;14.87;10.37;;;;;;;16.72;95.98;99247.16;10460990;28;20171;-76
2021/07/22 23:53:21;;;;;;;12.57;9.60;;;;;;;16.63;97.10;99240.66;10459553;28;20246;-77
2021/07/22 23:58:40;;;;;;;17.13;10.23;;;;;;;16.71;96.80;99239.25;10459360;28;20201;-77
